createdAt,value
2018-06-24T00:01:13.302Z,82.19
2018-06-24T00:03:42.517Z,83.46
2018-06-24T00:06:11.752Z,84.12
2018-06-24T00:08:41.082Z,84.68
2018-06-24T00:11:10.623Z,82.21
2018-06-24T00:13:39.955Z,83.62
2018-06-24T00:16:09.166Z,84.14
2018-06-24T00:18:38.367Z,84.18
2018-06-24T00:21:07.561Z,83.60
2018-06-24T00:23:36.787Z,84.42
2018-06-24T00:26:06.011Z,82.58
2018-06-24T00:28:35.185Z,83.67
2018-06-24T00:31:04.395Z,83.25
2018-06-24T00:33:33.615Z,82.47
2018-06-24T00:36:02.836Z,83.49
2018-06-24T00:38:32.074Z,84.11
2018-06-24T00:41:01.330Z,84.43
2018-06-24T00:43:30.532Z,83.67
2018-06-24T00:45:59.718Z,83.48
2018-06-24T00:48:28.926Z,84.90
2018-06-24T00:50:58.148Z,85.76
2018-06-24T00:53:27.382Z,87.40
2018-06-24T00:55:56.560Z,87.55
2018-06-24T00:58:25.766Z,87.47
2018-06-24T01:00:54.966Z,88.09
2018-06-24T01:03:25.015Z,90.28
2018-06-24T01:05:54.215Z,90.01
2018-06-24T01:08:23.455Z,91.37
2018-06-24T01:10:52.658Z,90.92
2018-06-24T01:13:21.851Z,89.91
2018-06-24T01:15:51.067Z,89.42
2018-06-24T01:18:20.269Z,87.23
2018-06-24T01:20:49.475Z,86.15
2018-06-24T01:23:18.682Z,91.15
2018-06-24T01:25:47.875Z,91.74
2018-06-24T01:28:18.086Z,90.62
2018-06-24T01:30:47.301Z,91.81
2018-06-24T01:33:16.555Z,91.55
2018-06-24T01:35:45.762Z,92.01
2018-06-24T01:38:14.966Z,93.22
2018-06-24T01:40:44.209Z,90.27
2018-06-24T01:43:13.266Z,91.06
2018-06-24T01:45:42.509Z,92.16
2018-06-24T01:48:11.484Z,92.90
2018-06-24T01:50:40.475Z,92.77
2018-06-24T01:53:09.695Z,92.29
2018-06-24T01:55:38.900Z,92.37
2018-06-24T01:58:08.115Z,91.78
2018-06-24T02:00:37.298Z,92.59
2018-06-24T02:03:06.519Z,92.22
2018-06-24T02:05:35.731Z,92.56
2018-06-24T02:08:05.258Z,92.95
2018-06-24T02:10:34.507Z,93.13
2018-06-24T02:13:03.691Z,94.46
2018-06-24T02:15:32.899Z,94.74
2018-06-24T02:18:02.121Z,95.61
2018-06-24T02:20:31.346Z,95.73
2018-06-24T02:23:00.551Z,95.87
2018-06-24T02:25:29.758Z,96.62
2018-06-24T02:27:58.953Z,96.17
2018-06-24T02:30:28.365Z,95.41
2018-06-24T02:32:57.546Z,93.36
2018-06-24T02:35:26.739Z,94.30
2018-06-24T02:37:55.835Z,94.05
2018-06-24T02:40:26.099Z,94.09
2018-06-24T02:43:01.999Z,92.72
2018-06-24T02:45:31.299Z,91.17
2018-06-24T02:48:00.509Z,91.73
2018-06-24T02:50:29.736Z,93.08
2018-06-24T02:52:58.945Z,92.26
2018-06-24T02:55:28.156Z,92.89
2018-06-24T02:57:57.385Z,94.36
2018-06-24T03:00:26.714Z,95.05
2018-06-24T03:02:55.935Z,95.63
2018-06-24T03:05:25.119Z,95.79
2018-06-24T03:07:54.348Z,96.62
2018-06-24T03:10:23.640Z,95.98
2018-06-24T03:12:53.193Z,96.54
2018-06-24T03:15:22.363Z,96.67
2018-06-24T03:17:51.591Z,96.83
2018-06-24T03:20:20.791Z,96.14
2018-06-24T03:22:50.108Z,96.59
2018-06-24T03:25:19.310Z,96.78
2018-06-24T03:27:48.506Z,96.73
2018-06-24T03:30:17.722Z,95.67
2018-06-24T03:32:46.939Z,96.88
2018-06-24T03:35:16.147Z,96.21
2018-06-24T03:37:45.378Z,93.71
2018-06-24T03:40:14.559Z,92.98
2018-06-24T03:42:45.276Z,91.33
2018-06-24T03:45:14.487Z,91.40
2018-06-24T03:47:43.670Z,91.14
2018-06-24T03:50:12.930Z,92.17
2018-06-24T03:52:42.264Z,93.71
2018-06-24T03:55:11.467Z,93.12
2018-06-24T03:57:40.679Z,92.47
2018-06-24T04:00:09.879Z,89.68
2018-06-24T04:02:39.072Z,90.14
2018-06-24T04:05:08.264Z,88.53
2018-06-24T04:07:37.499Z,89.42
2018-06-24T04:10:06.734Z,87.64
2018-06-24T04:12:35.914Z,87.94
2018-06-24T04:15:05.124Z,88.12
2018-06-24T04:17:34.335Z,89.22
2018-06-24T04:20:03.531Z,87.98
2018-06-24T04:22:32.733Z,88.77
2018-06-24T04:25:01.970Z,88.21
2018-06-24T04:27:31.171Z,88.90
2018-06-24T04:30:00.387Z,88.61
2018-06-24T04:32:29.595Z,88.42
2018-06-24T04:34:58.801Z,87.80
2018-06-24T04:37:27.987Z,86.91
2018-06-24T04:39:57.189Z,85.52
2018-06-24T04:42:26.460Z,85.36
2018-06-24T04:44:55.677Z,87.06
2018-06-24T04:47:24.883Z,90.49
2018-06-24T04:49:53.854Z,91.44
2018-06-24T04:52:23.073Z,91.98
2018-06-24T04:54:52.326Z,91.32
2018-06-24T04:57:21.815Z,88.38
2018-06-24T04:59:51.130Z,85.81
2018-06-24T05:02:20.342Z,81.62
2018-06-24T05:04:49.579Z,82.23
2018-06-24T05:07:18.797Z,78.76
2018-06-24T05:09:47.999Z,76.94
2018-06-24T05:12:17.239Z,72.77
2018-06-24T05:14:46.553Z,72.74
2018-06-24T05:17:15.899Z,74.32
2018-06-24T05:19:45.116Z,77.35
2018-06-24T05:22:14.355Z,78.00
2018-06-24T05:24:43.600Z,80.94
2018-06-24T05:27:12.803Z,77.32
2018-06-24T05:29:42.075Z,75.10
2018-06-24T05:32:11.279Z,73.74
2018-06-24T05:34:40.486Z,71.86
2018-06-24T05:37:09.692Z,73.11
2018-06-24T05:39:38.901Z,72.88
2018-06-24T05:42:08.128Z,72.61
2018-06-24T05:44:37.317Z,72.95
2018-06-24T05:47:06.507Z,71.30
2018-06-24T05:49:35.815Z,70.50
2018-06-24T05:52:05.110Z,74.76
2018-06-24T05:54:34.328Z,69.36
2018-06-24T05:57:03.523Z,65.54
2018-06-24T05:59:32.815Z,65.85
2018-06-24T06:02:02.056Z,65.16
2018-06-24T06:04:31.254Z,61.11
2018-06-24T06:07:00.505Z,49.66
2018-06-24T06:09:29.699Z,47.16
2018-06-24T06:11:58.925Z,46.13
2018-06-24T06:14:28.699Z,45.19
2018-06-24T06:16:57.903Z,39.12
2018-06-24T06:19:27.078Z,39.59
2018-06-24T06:21:56.334Z,37.64
2018-06-24T06:24:25.539Z,45.76
2018-06-24T06:26:54.881Z,49.10
2018-06-24T06:29:24.169Z,47.77
2018-06-24T06:31:53.363Z,38.35
2018-06-24T06:34:22.588Z,31.43
2018-06-24T06:36:51.937Z,28.30
2018-06-24T06:39:21.112Z,28.38
2018-06-24T06:41:50.113Z,31.65
2018-06-24T06:44:19.374Z,32.18
2018-06-24T06:46:48.592Z,32.85
2018-06-24T06:49:17.798Z,34.15
2018-06-24T06:51:47.008Z,29.19
2018-06-24T06:54:16.218Z,28.13
2018-06-24T06:56:45.439Z,25.93
2018-06-24T06:59:14.650Z,30.26
2018-06-24T07:01:43.844Z,36.69
2018-06-24T07:04:13.047Z,45.89
2018-06-24T07:06:42.246Z,42.33
2018-06-24T07:09:11.945Z,37.23
2018-06-24T07:11:41.367Z,30.32
2018-06-24T07:14:10.641Z,29.83
2018-06-24T07:16:39.871Z,25.94
2018-06-24T07:19:09.047Z,24.93
2018-06-24T07:21:38.277Z,22.67
2018-06-24T07:24:07.471Z,24.73
2018-06-24T07:26:36.711Z,33.64
2018-06-24T07:29:05.923Z,41.47
2018-06-24T07:31:35.124Z,44.47
2018-06-24T07:34:04.322Z,49.38
2018-06-24T07:36:33.517Z,50.06
2018-06-24T07:39:04.445Z,53.89
2018-06-24T07:41:33.618Z,54.84
2018-06-24T07:44:02.822Z,55.19
2018-06-24T07:46:32.024Z,52.45
2018-06-24T07:49:01.222Z,53.84
2018-06-24T07:51:30.465Z,50.11
2018-06-24T07:53:59.708Z,48.39
2018-06-24T07:56:28.911Z,47.43
2018-06-24T07:58:58.138Z,36.99
2018-06-24T08:01:27.427Z,36.12
2018-06-24T08:03:56.664Z,32.72
2018-06-24T08:06:25.898Z,33.35
2018-06-24T08:08:55.187Z,32.48
2018-06-24T08:11:24.397Z,36.79
2018-06-24T08:13:53.610Z,41.00
2018-06-24T08:16:22.822Z,40.54
2018-06-24T08:18:52.134Z,39.60
2018-06-24T08:21:21.327Z,41.63
2018-06-24T08:23:50.609Z,45.46
2018-06-24T08:26:19.827Z,46.08
2018-06-24T08:28:49.047Z,44.62
2018-06-24T08:31:18.298Z,39.19
2018-06-24T08:33:47.489Z,36.76
2018-06-24T08:36:16.702Z,38.87
2018-06-24T08:38:45.923Z,41.33
2018-06-24T08:41:15.137Z,40.46
2018-06-24T08:43:44.367Z,46.69
2018-06-24T08:46:13.643Z,39.08
2018-06-24T08:48:42.941Z,41.81
2018-06-24T08:51:12.162Z,41.09
2018-06-24T08:53:41.363Z,46.38
2018-06-24T08:56:10.557Z,46.36
2018-06-24T08:58:39.767Z,38.88
2018-06-24T09:01:10.194Z,40.80
2018-06-24T09:03:39.392Z,37.89
2018-06-24T09:06:08.634Z,37.96
2018-06-24T09:08:37.903Z,37.89
2018-06-24T09:11:07.240Z,32.36
2018-06-24T09:13:36.457Z,25.20
2018-06-24T09:16:06.016Z,30.72
2018-06-24T09:18:35.313Z,31.29
2018-06-24T09:21:04.677Z,27.77
2018-06-24T09:23:33.923Z,35.68
2018-06-24T09:26:03.192Z,33.20
2018-06-24T09:28:32.409Z,35.39
2018-06-24T09:31:01.646Z,33.89
2018-06-24T09:33:30.858Z,33.51
2018-06-24T09:36:00.079Z,30.88
2018-06-24T09:38:29.263Z,26.98
2018-06-24T09:40:58.558Z,28.61
2018-06-24T09:43:27.685Z,28.44
2018-06-24T09:45:56.874Z,24.02
2018-06-24T09:48:26.067Z,29.64
2018-06-24T09:50:55.246Z,27.44
2018-06-24T09:53:24.446Z,29.62
2018-06-24T09:55:53.651Z,28.63
2018-06-24T09:58:22.877Z,26.10
2018-06-24T10:00:52.096Z,28.60
2018-06-24T10:03:21.326Z,26.73
2018-06-24T10:05:50.507Z,25.86
2018-06-24T10:08:19.701Z,32.66
2018-06-24T10:10:48.898Z,29.47
2018-06-24T10:13:18.093Z,28.07
2018-06-24T10:15:47.323Z,29.39
2018-06-24T10:18:16.539Z,30.96
2018-06-24T10:20:45.775Z,33.88
2018-06-24T10:23:14.958Z,39.00
2018-06-24T10:25:44.175Z,38.38
2018-06-24T10:28:13.397Z,41.05
2018-06-24T10:30:42.594Z,32.46
2018-06-24T10:33:11.783Z,32.06
2018-06-24T10:35:40.983Z,27.64
2018-06-24T10:38:10.187Z,29.66
2018-06-24T10:40:39.390Z,29.32
2018-06-24T10:43:08.592Z,28.62
2018-06-24T10:45:37.848Z,27.60
2018-06-24T10:48:07.734Z,35.01
2018-06-24T10:50:37.095Z,37.53
2018-06-24T10:53:07.025Z,40.38
2018-06-24T10:55:36.252Z,40.15
2018-06-24T10:58:05.861Z,41.31
2018-06-24T11:00:35.703Z,41.25
2018-06-24T11:03:04.922Z,39.01
2018-06-24T11:05:34.152Z,41.37
2018-06-24T11:08:03.362Z,37.28
2018-06-24T11:10:32.546Z,32.84
2018-06-24T11:13:01.772Z,31.00
2018-06-24T11:15:31.092Z,34.84
2018-06-24T11:18:00.303Z,40.15
2018-06-24T11:20:29.507Z,37.59
2018-06-24T11:22:58.795Z,38.76
2018-06-24T11:25:29.238Z,40.74
2018-06-24T11:27:58.467Z,40.25
2018-06-24T11:30:27.646Z,39.21
2018-06-24T11:32:56.871Z,34.20
2018-06-24T11:35:26.106Z,38.25
2018-06-24T11:37:55.343Z,36.23
2018-06-24T11:40:24.546Z,28.38
2018-06-24T11:42:53.797Z,39.03
2018-06-24T11:45:23.024Z,40.64
2018-06-24T11:47:52.242Z,39.20
2018-06-24T11:50:21.453Z,40.60
2018-06-24T11:52:51.117Z,37.75
2018-06-24T11:55:20.364Z,38.33
2018-06-24T11:57:49.566Z,33.34
2018-06-24T12:00:18.757Z,29.69
2018-06-24T12:02:48.080Z,32.86
2018-06-24T12:05:17.197Z,38.50
2018-06-24T12:07:46.407Z,35.17
2018-06-24T12:10:15.607Z,36.41
2018-06-24T12:12:44.842Z,35.13
2018-06-24T12:15:14.035Z,36.30
2018-06-24T12:17:43.263Z,38.45
2018-06-24T12:20:12.515Z,37.50
2018-06-24T12:22:41.703Z,38.44
2018-06-24T12:25:10.907Z,35.30
2018-06-24T12:27:40.171Z,36.55
2018-06-24T12:30:09.747Z,36.59
2018-06-24T12:32:39.012Z,37.91
2018-06-24T12:35:08.263Z,37.71
2018-06-24T12:37:37.467Z,38.01
2018-06-24T12:40:06.732Z,37.22
2018-06-24T12:42:35.904Z,38.17
2018-06-24T12:45:05.326Z,37.41
2018-06-24T12:47:34.514Z,38.82
2018-06-24T12:50:03.735Z,34.25
2018-06-24T12:52:32.932Z,33.80
2018-06-24T12:55:02.114Z,33.94
2018-06-24T12:57:31.335Z,38.37
2018-06-24T13:00:00.997Z,37.33
2018-06-24T13:02:29.782Z,38.86
2018-06-24T13:04:58.961Z,38.91
2018-06-24T13:07:28.168Z,34.85
2018-06-24T13:09:57.344Z,33.95
2018-06-24T13:12:26.538Z,36.85
2018-06-24T13:14:55.742Z,39.22
2018-06-24T13:17:24.938Z,38.75
2018-06-24T13:19:54.190Z,34.92
2018-06-24T13:22:23.407Z,37.91
2018-06-24T13:24:52.615Z,39.10
2018-06-24T13:27:21.804Z,38.54
2018-06-24T13:29:51.023Z,39.13
2018-06-24T13:32:20.223Z,39.19
2018-06-24T13:34:49.465Z,38.65
2018-06-24T13:37:18.645Z,40.59
2018-06-24T13:39:47.894Z,38.92
2018-06-24T13:42:17.134Z,41.87
2018-06-24T13:44:46.302Z,37.90
2018-06-24T13:47:16.344Z,39.86
2018-06-24T13:49:45.530Z,40.43
2018-06-24T13:52:14.750Z,40.29
2018-06-24T13:54:43.958Z,41.19
2018-06-24T13:57:13.203Z,38.50
2018-06-24T13:59:42.404Z,35.31
2018-06-24T14:02:11.589Z,38.76
2018-06-24T14:04:40.812Z,39.45
2018-06-24T14:07:09.994Z,41.11
2018-06-24T14:09:39.222Z,41.92
2018-06-24T14:12:08.474Z,42.91
2018-06-24T14:14:37.671Z,41.37
2018-06-24T14:17:06.879Z,38.55
2018-06-24T14:19:36.079Z,40.28
2018-06-24T14:22:05.287Z,43.49
2018-06-24T14:24:34.504Z,43.06
2018-06-24T14:27:03.695Z,40.90
2018-06-24T14:29:32.923Z,39.71
2018-06-24T14:32:02.124Z,42.97
2018-06-24T14:34:31.314Z,39.84
2018-06-24T14:37:00.509Z,42.09
2018-06-24T14:39:29.747Z,41.82
2018-06-24T14:41:58.947Z,41.91
2018-06-24T14:44:28.174Z,40.39
2018-06-24T14:46:57.374Z,40.68
2018-06-24T14:49:26.601Z,40.19
2018-06-24T14:51:55.783Z,39.70
2018-06-24T14:54:24.994Z,38.39
2018-06-24T14:56:54.196Z,38.36
2018-06-24T14:59:23.523Z,36.82
2018-06-24T15:01:52.752Z,41.09
2018-06-24T15:04:22.049Z,40.16
2018-06-24T15:06:51.241Z,39.57
2018-06-24T15:09:20.664Z,37.62
2018-06-24T15:11:49.856Z,40.09
2018-06-24T15:14:19.034Z,40.53
2018-06-24T15:16:48.231Z,42.18
2018-06-24T15:19:17.451Z,40.61
2018-06-24T15:21:46.647Z,42.31
2018-06-24T15:24:15.863Z,40.69
2018-06-24T15:26:45.064Z,42.58
2018-06-24T15:29:14.347Z,44.19
2018-06-24T15:31:43.547Z,43.38
2018-06-24T15:34:12.754Z,43.40
2018-06-24T15:36:41.979Z,42.11
2018-06-24T15:39:12.354Z,42.80
2018-06-24T15:41:42.050Z,42.60
2018-06-24T15:44:11.260Z,43.51
2018-06-24T15:46:40.432Z,44.05
2018-06-24T15:49:09.634Z,44.02
2018-06-24T15:51:39.763Z,43.74
2018-06-24T15:54:08.970Z,46.02
2018-06-24T15:56:38.161Z,45.24
2018-06-24T15:59:07.335Z,45.75
2018-06-24T16:01:36.528Z,46.00
2018-06-24T16:04:05.720Z,44.78
2018-06-24T16:06:34.901Z,46.46
2018-06-24T16:09:06.050Z,45.47
2018-06-24T16:11:35.243Z,44.83
2018-06-24T16:14:04.454Z,47.58
2018-06-24T16:16:33.736Z,45.87
2018-06-24T16:19:02.936Z,46.09
2018-06-24T16:21:32.351Z,46.08
2018-06-24T16:24:01.534Z,46.13
2018-06-24T16:26:30.735Z,47.35
2018-06-24T16:28:59.931Z,45.00
2018-06-24T16:31:29.139Z,47.95
2018-06-24T16:33:58.315Z,47.23
2018-06-24T16:36:27.523Z,46.99
2018-06-24T16:38:56.718Z,47.34
2018-06-24T16:41:25.902Z,46.64
2018-06-24T16:43:55.100Z,45.99
2018-06-24T16:46:24.278Z,46.43
2018-06-24T16:48:53.479Z,47.26
2018-06-24T16:51:22.674Z,48.05
2018-06-24T16:53:51.874Z,48.16
2018-06-24T16:56:21.075Z,47.67
2018-06-24T16:58:50.270Z,48.76
2018-06-24T17:01:19.459Z,48.12
2018-06-24T17:03:48.725Z,47.42
2018-06-24T17:06:17.851Z,47.25
2018-06-24T17:08:47.061Z,47.76
2018-06-24T17:11:16.298Z,47.69
2018-06-24T17:13:45.555Z,48.03
2018-06-24T17:16:14.755Z,49.88
2018-06-24T17:18:43.955Z,49.40
2018-06-24T17:21:13.286Z,49.30
2018-06-24T17:23:42.504Z,48.24
2018-06-24T17:26:14.567Z,48.98
2018-06-24T17:28:43.766Z,48.32
2018-06-24T17:31:12.968Z,49.32
2018-06-24T17:33:42.167Z,49.16
2018-06-24T17:36:11.382Z,50.27
2018-06-24T17:38:40.621Z,50.48
2018-06-24T17:41:09.886Z,50.19
2018-06-24T17:43:39.131Z,50.96
2018-06-24T17:46:08.360Z,50.71
2018-06-24T17:48:37.506Z,50.85
2018-06-24T17:51:06.718Z,50.35
2018-06-24T17:53:35.915Z,50.21
2018-06-24T17:56:05.145Z,51.52
2018-06-24T18:14:19.826Z,51.92
2018-06-24T18:16:49.059Z,53.02
2018-06-24T18:19:19.006Z,53.28
2018-06-24T18:21:48.215Z,54.03
2018-06-24T18:24:17.414Z,54.48
2018-06-24T18:26:46.628Z,55.38
2018-06-24T18:29:15.851Z,54.57
2018-06-24T18:31:45.052Z,54.70
2018-06-24T18:34:14.263Z,56.34
2018-06-24T18:36:43.470Z,56.09
2018-06-24T18:39:12.706Z,55.87
2018-06-24T18:41:41.923Z,55.58
2018-06-24T18:44:11.118Z,56.43
2018-06-24T18:46:40.306Z,56.49
2018-06-24T18:49:09.526Z,57.16
2018-06-24T18:51:38.718Z,57.43
2018-06-24T18:54:08.171Z,58.15
2018-06-24T18:56:37.631Z,57.03
2018-06-24T18:59:06.883Z,57.81
2018-06-24T19:01:36.116Z,58.25
2018-06-24T19:04:05.444Z,58.38
2018-06-24T19:06:34.656Z,59.42
2018-06-24T19:09:05.583Z,62.56
2018-06-24T19:11:34.856Z,61.18
2018-06-24T19:14:04.186Z,64.11
2018-06-24T19:16:33.415Z,64.70
2018-06-24T19:19:02.633Z,66.96
2018-06-24T19:21:31.819Z,65.92
2018-06-24T19:24:01.016Z,66.91
2018-06-24T19:26:30.215Z,68.83
2018-06-24T19:28:59.426Z,68.95
2018-06-24T19:31:28.626Z,68.24
2018-06-24T19:33:57.877Z,67.39
2018-06-24T19:36:27.091Z,67.33
2018-06-24T19:38:56.347Z,67.92
2018-06-24T19:41:25.650Z,67.06
2018-06-24T19:43:54.822Z,66.39
2018-06-24T19:46:24.014Z,67.12
2018-06-24T19:48:53.227Z,63.77
2018-06-24T19:51:22.433Z,67.15
2018-06-24T19:53:52.876Z,66.61
2018-06-24T19:56:22.070Z,67.80
2018-06-24T19:58:51.283Z,67.45
2018-06-24T20:01:20.499Z,69.85
2018-06-24T20:03:49.695Z,70.33
2018-06-24T20:06:18.900Z,71.97
2018-06-24T20:08:48.098Z,71.92
2018-06-24T20:11:17.326Z,71.39
2018-06-24T20:13:46.542Z,70.78
2018-06-24T20:16:15.741Z,69.45
2018-06-24T20:18:44.995Z,72.62
2018-06-24T20:21:14.198Z,72.98
2018-06-24T20:23:43.399Z,74.64
2018-06-24T20:26:12.578Z,74.79
2018-06-24T20:28:41.771Z,74.65
2018-06-24T20:31:10.971Z,75.37
2018-06-24T20:33:40.263Z,74.24
2018-06-24T20:36:09.587Z,74.61
2018-06-24T20:38:38.782Z,74.55
2018-06-24T20:41:08.011Z,75.42
2018-06-24T20:43:37.198Z,73.50
2018-06-24T20:46:06.408Z,74.71
2018-06-24T20:48:35.602Z,75.33
2018-06-24T20:51:04.841Z,73.38
2018-06-24T20:53:34.026Z,73.71
2018-06-24T20:56:03.206Z,72.94
2018-06-24T20:58:32.425Z,74.02
2018-06-24T21:01:01.598Z,73.07
2018-06-24T21:03:30.826Z,72.52
2018-06-24T21:06:00.023Z,74.00
2018-06-24T21:08:29.237Z,74.11
2018-06-24T21:10:58.439Z,73.05
2018-06-24T21:13:27.627Z,73.37
2018-06-24T21:15:56.824Z,73.95
2018-06-24T21:18:26.013Z,76.75
2018-06-24T21:20:55.212Z,75.99
2018-06-24T21:23:24.421Z,76.00
2018-06-24T21:25:53.622Z,76.68
2018-06-24T21:28:22.820Z,76.01
2018-06-24T21:30:52.054Z,75.98
2018-06-24T21:33:21.254Z,77.06
2018-06-24T21:35:50.453Z,77.72
2018-06-24T21:38:19.636Z,78.36
2018-06-24T21:40:48.830Z,77.42
2018-06-24T21:43:18.025Z,77.21
2018-06-24T21:45:47.216Z,77.03
2018-06-24T21:48:16.407Z,75.22
2018-06-24T21:50:45.597Z,75.32
2018-06-24T21:53:14.799Z,74.11
2018-06-24T21:55:43.998Z,75.33
2018-06-24T21:58:13.209Z,74.72
2018-06-24T22:00:42.396Z,76.47
2018-06-24T22:03:11.575Z,76.23
2018-06-24T22:05:40.983Z,73.05
2018-06-24T22:08:10.181Z,73.66
2018-06-24T22:10:39.377Z,75.92
2018-06-24T22:13:08.599Z,77.29
2018-06-24T22:15:37.791Z,77.09
2018-06-24T22:18:06.996Z,75.53
2018-06-24T22:20:36.185Z,76.89
2018-06-24T22:23:05.462Z,76.45
2018-06-24T22:25:34.650Z,78.02
2018-06-24T22:28:03.862Z,76.85
2018-06-24T22:30:33.052Z,78.56
2018-06-24T22:33:02.259Z,79.41
2018-06-24T22:35:31.451Z,79.62
2018-06-24T22:38:00.639Z,79.41
2018-06-24T22:40:29.835Z,77.41
2018-06-24T22:42:59.035Z,78.30
2018-06-24T22:45:28.211Z,77.39
2018-06-24T22:47:57.416Z,78.43
2018-06-24T22:50:26.608Z,79.45
2018-06-24T22:52:55.799Z,80.14
2018-06-24T22:55:24.994Z,76.96
2018-06-24T22:57:54.190Z,76.31
2018-06-24T23:00:23.373Z,76.83
2018-06-24T23:02:52.611Z,75.43
2018-06-24T23:05:21.797Z,76.24
2018-06-24T23:07:51.003Z,75.43
2018-06-24T23:10:20.198Z,74.87
2018-06-24T23:12:49.413Z,73.29
2018-06-24T23:15:18.619Z,72.81
2018-06-24T23:17:47.810Z,72.95
2018-06-24T23:20:17.029Z,73.65
2018-06-24T23:22:46.223Z,73.00
2018-06-24T23:25:15.421Z,72.37
2018-06-24T23:27:44.608Z,73.17
2018-06-24T23:30:13.806Z,73.59
2018-06-24T23:32:42.998Z,72.92
2018-06-24T23:35:12.194Z,72.45
2018-06-24T23:37:41.399Z,72.06
2018-06-24T23:40:11.470Z,72.18
2018-06-24T23:42:40.659Z,72.68
2018-06-24T23:45:09.859Z,72.98
2018-06-24T23:47:39.069Z,72.22
2018-06-24T23:50:08.275Z,73.38
2018-06-24T23:52:37.450Z,72.88
2018-06-24T23:55:06.911Z,73.17
2018-06-24T23:57:36.119Z,73.74
